createdAt,value
2023-03-16T00:02:31.979Z,112.10
2023-03-16T00:05:41.760Z,79.33
2023-03-16T00:08:47.665Z,55.49
2023-03-16T00:11:54.216Z,103.75
2023-03-16T00:15:02.067Z,95.31
2023-03-16T00:18:08.832Z,105.93
2023-03-16T00:21:18.518Z,87.18
2023-03-16T00:24:25.274Z,74.33
2023-03-16T00:27:31.130Z,82.95
2023-03-16T00:30:37.933Z,70.85
2023-03-16T00:33:45.650Z,79.18
2023-03-16T00:36:55.355Z,75.85
2023-03-16T00:40:08.056Z,59.19
2023-03-16T00:43:18.969Z,43.68
2023-03-16T00:46:28.041Z,49.92
2023-03-16T00:49:35.654Z,73.93
2023-03-16T00:52:45.096Z,70.46
2023-03-16T00:55:53.564Z,66.84
2023-03-16T00:59:00.685Z,46.48
2023-03-16T01:02:09.718Z,58.78
2023-03-16T01:05:16.711Z,58.80
2023-03-16T01:08:28.091Z,50.84
2023-03-16T01:11:35.555Z,59.84
2023-03-16T01:14:45.936Z,49.07
2023-03-16T01:17:51.948Z,50.11
2023-03-16T01:20:58.692Z,46.18
2023-03-16T01:24:07.649Z,51.97
2023-03-16T01:27:15.319Z,57.78
2023-03-16T01:30:24.165Z,58.74
2023-03-16T01:33:32.223Z,58.78
2023-03-16T01:36:38.097Z,67.10
2023-03-16T01:39:49.246Z,48.59
2023-03-16T01:43:07.218Z,112.52
2023-03-16T01:46:24.105Z,56.35
2023-03-16T01:49:39.512Z,71.20
2023-03-16T01:52:46.368Z,69.86
2023-03-16T01:55:56.572Z,63.69
2023-03-16T01:59:13.994Z,72.16
2023-03-16T02:02:26.690Z,49.94
2023-03-16T02:05:44.678Z,35.02
2023-03-16T02:08:57.065Z,33.02
2023-03-16T02:12:09.682Z,34.00
2023-03-16T02:15:19.670Z,34.01
2023-03-16T02:18:26.705Z,33.49
2023-03-16T02:21:49.923Z,33.02
2023-03-16T02:24:57.981Z,33.19
2023-03-16T02:28:23.646Z,32.80
2023-03-16T02:31:34.346Z,32.10
2023-03-16T02:34:42.104Z,30.19
2023-03-16T02:37:49.051Z,29.59
2023-03-16T02:41:04.277Z,29.27
2023-03-16T02:44:20.625Z,30.67
2023-03-16T02:47:38.696Z,31.55
2023-03-16T02:50:50.343Z,36.88
2023-03-16T02:53:56.155Z,51.78
2023-03-16T02:57:06.575Z,57.03
2023-03-16T03:00:18.046Z,53.57
2023-03-16T03:03:34.464Z,65.90
2023-03-16T03:06:40.403Z,52.35
2023-03-16T03:09:47.280Z,45.96
2023-03-16T03:12:53.191Z,56.06
2023-03-16T03:16:03.418Z,65.30
2023-03-16T03:19:11.829Z,65.85
2023-03-16T03:22:19.771Z,58.74
2023-03-16T03:25:26.915Z,68.33
2023-03-16T03:28:34.839Z,66.86
2023-03-16T03:31:40.732Z,58.86
2023-03-16T03:34:50.023Z,52.12
2023-03-16T03:37:55.955Z,48.24
2023-03-16T03:41:02.807Z,54.59
2023-03-16T03:44:15.312Z,62.27
2023-03-16T03:47:22.626Z,77.79
2023-03-16T03:50:31.966Z,76.83
2023-03-16T03:54:07.532Z,93.16
2023-03-16T03:57:24.372Z,98.71
2023-03-16T04:00:31.239Z,97.61
2023-03-16T04:03:37.883Z,135.47
2023-03-16T04:06:48.219Z,106.96
2023-03-16T04:09:54.854Z,86.27
2023-03-16T04:13:06.406Z,86.04
2023-03-16T04:16:16.533Z,82.27
2023-03-16T04:19:26.046Z,73.61
2023-03-16T04:22:37.369Z,59.22
2023-03-16T04:25:43.357Z,48.56
2023-03-16T04:28:50.584Z,47.79
2023-03-16T04:31:58.573Z,44.73
2023-03-16T04:35:09.409Z,45.74
2023-03-16T04:38:29.527Z,43.91
2023-03-16T04:41:45.850Z,46.43
2023-03-16T04:44:56.967Z,44.21
2023-03-16T04:48:06.002Z,60.87
2023-03-16T04:51:12.013Z,57.54
2023-03-16T04:54:27.201Z,42.99
2023-03-16T04:57:33.205Z,43.53
2023-03-16T05:00:40.896Z,42.65
2023-03-16T05:03:57.060Z,42.97
2023-03-16T05:07:05.186Z,49.19
2023-03-16T05:10:22.125Z,46.39
2023-03-16T05:13:28.916Z,45.22
2023-03-16T05:16:37.740Z,45.98
2023-03-16T05:19:45.457Z,46.11
2023-03-16T05:22:54.007Z,46.20
2023-03-16T05:26:13.403Z,52.73
2023-03-16T05:29:19.852Z,50.61
2023-03-16T05:32:26.608Z,49.59
2023-03-16T05:35:32.830Z,50.85
2023-03-16T05:38:45.808Z,52.13
2023-03-16T05:42:01.970Z,51.87
2023-03-16T05:45:19.070Z,51.70
2023-03-16T05:48:37.836Z,49.01
2023-03-16T05:51:45.943Z,48.58
2023-03-16T05:54:52.753Z,46.42
2023-03-16T05:58:03.802Z,46.23
2023-03-16T06:01:13.530Z,44.55
2023-03-16T06:04:23.437Z,43.20
2023-03-16T06:07:32.602Z,43.61
2023-03-16T06:10:39.956Z,46.12
2023-03-16T06:13:48.437Z,46.94
2023-03-16T06:16:55.791Z,46.46
2023-03-16T06:20:02.035Z,41.84
2023-03-16T06:23:09.265Z,39.89
2023-03-16T06:26:16.052Z,41.80
2023-03-16T06:29:27.739Z,46.18
2023-03-16T06:32:34.838Z,41.61
2023-03-16T06:35:41.888Z,39.84
2023-03-16T06:38:56.053Z,36.18
2023-03-16T06:42:06.790Z,35.70
2023-03-16T06:45:16.817Z,35.63
2023-03-16T06:48:23.787Z,36.73
2023-03-16T06:51:30.300Z,39.62
2023-03-16T06:54:37.916Z,37.58
2023-03-16T06:57:45.295Z,35.67
2023-03-16T07:00:54.696Z,37.99
2023-03-16T07:04:01.979Z,38.25
2023-03-16T07:07:12.095Z,38.38
2023-03-16T07:10:21.074Z,39.26
2023-03-16T07:13:27.594Z,37.29
2023-03-16T07:16:36.564Z,33.12
2023-03-16T07:19:46.420Z,34.82
2023-03-16T07:22:53.255Z,33.11
2023-03-16T07:26:01.217Z,35.87
2023-03-16T07:29:07.868Z,35.05
2023-03-16T07:32:17.445Z,36.51
2023-03-16T07:35:26.698Z,36.73
2023-03-16T07:38:35.627Z,33.80
2023-03-16T07:41:45.564Z,36.61
2023-03-16T07:44:57.792Z,38.29
2023-03-16T07:48:08.817Z,33.61
2023-03-16T07:51:25.387Z,32.58
2023-03-16T07:54:31.704Z,32.38
2023-03-16T07:57:39.383Z,35.05
2023-03-16T08:00:45.417Z,36.98
2023-03-16T08:03:54.649Z,29.79
2023-03-16T08:07:02.334Z,29.77
2023-03-16T08:10:23.237Z,27.38
2023-03-16T08:13:35.792Z,26.71
2023-03-16T08:16:43.802Z,27.89
2023-03-16T08:19:52.340Z,31.53
2023-03-16T08:23:00.575Z,30.79
2023-03-16T08:26:13.269Z,28.88
2023-03-16T08:29:19.898Z,27.85
2023-03-16T08:32:27.033Z,26.49
2023-03-16T08:35:36.409Z,29.91
2023-03-16T08:38:44.136Z,31.31
2023-03-16T08:41:52.361Z,33.63
2023-03-16T08:45:12.286Z,34.92
2023-03-16T08:48:22.307Z,32.04
2023-03-16T08:51:32.779Z,28.44
2023-03-16T08:54:39.451Z,27.66
2023-03-16T08:57:46.537Z,26.75
2023-03-16T09:00:53.099Z,26.09
2023-03-16T09:04:00.709Z,26.58
2023-03-16T09:07:10.564Z,26.72
2023-03-16T09:10:19.119Z,28.76
2023-03-16T09:13:26.138Z,25.64
2023-03-16T09:16:34.641Z,25.60
2023-03-16T09:19:52.188Z,26.45
2023-03-16T09:23:02.135Z,26.28
2023-03-16T09:26:10.731Z,25.11
2023-03-16T09:29:16.796Z,24.47
2023-03-16T09:32:26.482Z,24.19
2023-03-16T09:35:34.357Z,23.40
2023-03-16T09:38:45.298Z,23.81
2023-03-16T09:42:06.063Z,22.51
2023-03-16T09:45:29.271Z,19.22
2023-03-16T09:48:41.332Z,18.56
2023-03-16T09:52:00.726Z,16.60
2023-03-16T09:55:29.207Z,14.58
2023-03-16T09:58:36.815Z,14.57
2023-03-16T10:02:04.553Z,10.41
2023-03-16T10:05:17.264Z,10.67
2023-03-16T10:08:29.253Z,13.69
2023-03-16T10:11:47.129Z,12.69
2023-03-16T10:15:02.028Z,10.52
2023-03-16T10:18:19.283Z,10.31
2023-03-16T10:21:27.472Z,9.25
2023-03-16T10:24:57.017Z,9.23
2023-03-16T10:28:05.689Z,7.45
2023-03-16T10:31:18.258Z,6.98
2023-03-16T10:34:25.007Z,7.77
2023-03-16T10:37:34.282Z,8.27
2023-03-16T10:40:43.034Z,7.50
2023-03-16T10:43:57.524Z,6.70
2023-03-16T10:47:08.469Z,7.06
2023-03-16T10:50:21.220Z,7.01
2023-03-16T10:53:33.138Z,6.56
2023-03-16T10:56:40.482Z,7.29
2023-03-16T10:59:52.964Z,6.32
2023-03-16T11:03:02.662Z,7.46
2023-03-16T11:06:20.736Z,8.26
2023-03-16T11:09:34.235Z,6.95
2023-03-16T11:12:40.082Z,6.26
2023-03-16T11:15:58.798Z,6.50
2023-03-16T11:19:20.905Z,6.58
2023-03-16T11:22:30.361Z,6.43
2023-03-16T11:25:48.157Z,5.56
2023-03-16T11:29:09.480Z,5.10
2023-03-16T11:32:28.918Z,5.11
2023-03-16T11:35:59.187Z,5.46
2023-03-16T11:39:26.839Z,5.29
2023-03-16T11:42:41.777Z,4.87
2023-03-16T11:46:05.710Z,5.34
2023-03-16T11:49:58.365Z,4.65
2023-03-16T11:53:21.373Z,6.47
2023-03-16T11:56:37.701Z,8.54
2023-03-16T12:00:10.708Z,6.05
2023-03-16T12:04:02.399Z,4.84
2023-03-16T12:07:39.718Z,5.99
2023-03-16T12:10:58.750Z,5.49
2023-03-16T12:14:19.820Z,4.70
2023-03-16T12:17:35.289Z,4.19
2023-03-16T12:20:53.097Z,4.17
2023-03-16T12:24:07.335Z,4.51
2023-03-16T12:27:21.384Z,4.66
2023-03-16T12:30:58.292Z,4.89
2023-03-16T12:34:26.054Z,4.98
2023-03-16T12:37:48.216Z,5.99
2023-03-16T12:41:19.991Z,4.97
2023-03-16T12:44:40.028Z,5.10
2023-03-16T12:48:00.968Z,4.94
2023-03-16T12:51:13.439Z,6.03
2023-03-16T12:54:25.437Z,5.88
2023-03-16T12:57:37.597Z,6.34
2023-03-16T13:00:45.431Z,6.90
2023-03-16T13:04:04.222Z,6.23
2023-03-16T13:07:19.478Z,7.61
2023-03-16T13:10:27.005Z,40.63
2023-03-16T13:13:37.421Z,26.90
2023-03-16T13:16:45.671Z,13.07
2023-03-16T13:20:06.894Z,5.76
2023-03-16T13:23:30.316Z,6.90
2023-03-16T13:26:45.541Z,6.93
2023-03-16T13:30:05.474Z,5.48
2023-03-16T13:33:25.827Z,5.59
2023-03-16T13:36:35.095Z,5.41
2023-03-16T13:39:40.965Z,5.31
2023-03-16T13:42:53.312Z,5.36
2023-03-16T13:46:03.692Z,5.66
2023-03-16T13:49:10.382Z,6.38
2023-03-16T13:52:28.924Z,6.34
2023-03-16T13:55:41.750Z,5.95
2023-03-16T13:58:52.867Z,5.45
2023-03-16T14:02:04.604Z,4.28
2023-03-16T14:05:15.908Z,5.06
2023-03-16T14:08:26.964Z,5.43
2023-03-16T14:11:33.742Z,6.78
2023-03-16T14:14:43.901Z,5.05
2023-03-16T14:17:52.600Z,4.99
2023-03-16T14:21:00.339Z,5.05
2023-03-16T14:24:09.604Z,5.93
2023-03-16T14:27:33.003Z,5.49
2023-03-16T14:30:38.855Z,4.74
2023-03-16T14:33:48.331Z,3.84
2023-03-16T14:36:54.290Z,5.35
2023-03-16T14:40:09.186Z,6.61
2023-03-16T14:43:15.825Z,5.20
2023-03-16T14:46:33.629Z,4.06
2023-03-16T14:49:43.609Z,4.24
2023-03-16T14:52:51.989Z,4.28
2023-03-16T14:56:01.313Z,4.46
2023-03-16T14:59:09.169Z,4.22
2023-03-16T15:02:23.155Z,5.07
2023-03-16T15:05:40.740Z,5.39
2023-03-16T15:08:51.073Z,5.93
2023-03-16T15:11:58.325Z,5.66
2023-03-16T15:15:19.599Z,6.90
2023-03-16T15:18:26.180Z,7.87
2023-03-16T15:21:35.141Z,7.62
2023-03-16T15:24:42.652Z,7.52
2023-03-16T15:27:49.287Z,47.12
2023-03-16T15:30:59.726Z,22.16
2023-03-16T15:34:07.298Z,26.64
2023-03-16T15:37:26.324Z,54.49
2023-03-16T15:40:33.911Z,27.39
2023-03-16T15:43:40.610Z,142.82
2023-03-16T15:46:46.753Z,215.96
2023-03-16T15:49:53.301Z,216.31
2023-03-16T15:53:13.251Z,11.17
2023-03-16T15:56:30.096Z,12.72
2023-03-16T15:59:40.166Z,7.97
2023-03-16T16:02:46.748Z,8.69
2023-03-16T16:05:53.402Z,8.62
2023-03-16T16:09:02.910Z,8.31
2023-03-16T16:12:13.057Z,9.92
2023-03-16T16:15:25.808Z,10.56
2023-03-16T16:18:37.580Z,11.33
2023-03-16T16:21:44.909Z,12.35
2023-03-16T16:24:53.390Z,16.54
2023-03-16T16:28:00.452Z,15.71
2023-03-16T16:31:17.158Z,11.66
2023-03-16T16:34:27.314Z,9.94
2023-03-16T16:37:33.449Z,11.85
2023-03-16T16:40:46.303Z,13.27
2023-03-16T16:43:56.544Z,18.91
2023-03-16T16:47:03.649Z,14.95
2023-03-16T16:50:18.757Z,13.79
2023-03-16T16:53:25.691Z,13.30
2023-03-16T16:56:39.027Z,12.24
2023-03-16T16:59:47.203Z,13.33
2023-03-16T17:02:58.903Z,13.34
2023-03-16T17:06:05.514Z,14.73
2023-03-16T17:09:12.508Z,18.01
2023-03-16T17:12:26.324Z,19.65
2023-03-16T17:15:35.224Z,22.50
2023-03-16T17:18:42.349Z,26.25
2023-03-16T17:21:49.243Z,28.71
2023-03-16T17:24:56.434Z,39.34
2023-03-16T17:28:05.812Z,40.76
2023-03-16T17:31:15.703Z,74.57
2023-03-16T17:34:26.058Z,37.42
2023-03-16T17:37:32.704Z,33.40
2023-03-16T17:40:38.805Z,31.77
2023-03-16T17:43:51.497Z,30.78
2023-03-16T17:46:57.754Z,38.16
2023-03-16T17:50:04.549Z,28.90
2023-03-16T17:53:10.334Z,25.09
2023-03-16T17:56:27.223Z,26.90
2023-03-16T17:59:36.677Z,27.64
2023-03-16T18:02:56.769Z,38.22
2023-03-16T18:06:02.729Z,31.82
2023-03-16T18:09:09.856Z,41.29
2023-03-16T18:12:15.753Z,34.36
2023-03-16T18:15:31.286Z,38.38
2023-03-16T18:18:41.931Z,38.98
2023-03-16T18:21:48.578Z,44.77
2023-03-16T18:24:58.114Z,49.35
2023-03-16T18:28:05.394Z,47.47
2023-03-16T18:31:24.340Z,70.58
2023-03-16T18:34:37.793Z,80.97
2023-03-16T18:37:44.914Z,54.76
2023-03-16T18:40:51.617Z,50.75
2023-03-16T18:44:01.156Z,51.44
2023-03-16T18:47:22.167Z,52.86
2023-03-16T18:50:32.008Z,51.34
2023-03-16T18:53:38.998Z,54.45
2023-03-16T18:56:44.753Z,50.71
2023-03-16T18:59:52.412Z,54.84
2023-03-16T19:03:09.350Z,55.23
2023-03-16T19:06:21.494Z,62.05
2023-03-16T19:09:32.223Z,65.62
2023-03-16T19:12:39.242Z,64.72
2023-03-16T19:15:45.252Z,60.37
2023-03-16T19:18:54.608Z,66.37
2023-03-16T19:22:13.102Z,65.82
2023-03-16T19:25:48.612Z,60.92
2023-03-16T19:28:56.477Z,64.82
2023-03-16T19:32:04.165Z,71.03
2023-03-16T19:35:21.098Z,64.99
2023-03-16T19:38:31.873Z,61.37
2023-03-16T19:41:44.079Z,58.61
2023-03-16T19:44:53.928Z,58.58
2023-03-16T19:47:59.862Z,62.70
2023-03-16T19:51:09.394Z,57.38
2023-03-16T19:54:25.918Z,57.24
2023-03-16T19:57:34.081Z,56.13
2023-03-16T20:00:43.378Z,60.77
2023-03-16T20:03:54.793Z,62.63
2023-03-16T20:07:03.324Z,67.17
2023-03-16T20:10:11.911Z,64.48
2023-03-16T20:13:31.890Z,67.63
2023-03-16T20:16:39.556Z,75.59
2023-03-16T20:19:48.639Z,74.85
2023-03-16T20:23:02.503Z,73.38
2023-03-16T20:26:17.905Z,68.55
2023-03-16T20:29:32.894Z,68.47
2023-03-16T20:32:40.120Z,70.36
2023-03-16T20:35:47.529Z,91.48
2023-03-16T20:38:56.170Z,88.16
2023-03-16T20:42:16.768Z,91.62
2023-03-16T20:45:33.797Z,99.40
2023-03-16T20:48:43.384Z,99.58
2023-03-16T20:51:49.692Z,122.54
2023-03-16T20:54:58.915Z,122.62
2023-03-16T20:58:05.718Z,96.92
2023-03-16T21:01:18.899Z,94.22
2023-03-16T21:04:31.258Z,98.11
2023-03-16T21:07:37.949Z,93.60
2023-03-16T21:10:49.438Z,93.92
2023-03-16T21:13:57.571Z,93.27
2023-03-16T21:17:06.522Z,90.31
2023-03-16T21:20:20.744Z,92.35
2023-03-16T21:23:27.644Z,97.18
2023-03-16T21:26:37.967Z,113.14
2023-03-16T21:29:44.016Z,106.28
2023-03-16T21:32:50.771Z,105.79
2023-03-16T21:35:57.039Z,108.95
2023-03-16T21:39:04.113Z,114.79
2023-03-16T21:42:12.828Z,119.59
2023-03-16T21:45:20.418Z,125.11
2023-03-16T21:48:32.597Z,128.60
2023-03-16T21:51:40.259Z,122.13
2023-03-16T21:54:47.738Z,122.52
2023-03-16T21:58:02.950Z,124.83
2023-03-16T22:01:09.712Z,125.38
2023-03-16T22:04:20.778Z,123.55
2023-03-16T22:07:28.469Z,126.07
2023-03-16T22:10:35.513Z,121.23
2023-03-16T22:13:44.442Z,114.01
2023-03-16T22:16:52.154Z,114.17
2023-03-16T22:19:58.209Z,112.14
2023-03-16T22:23:07.899Z,111.82
2023-03-16T22:26:22.638Z,109.88
2023-03-16T22:29:33.954Z,108.03
2023-03-16T22:32:39.911Z,108.34
2023-03-16T22:35:47.475Z,108.35
2023-03-16T22:39:02.386Z,116.27
2023-03-16T22:42:31.206Z,114.40
2023-03-16T22:45:39.968Z,107.45
2023-03-16T22:48:46.627Z,107.58
2023-03-16T22:51:58.408Z,105.46
2023-03-16T22:55:10.129Z,106.40
2023-03-16T22:58:30.921Z,109.50
2023-03-16T23:01:45.049Z,110.16
2023-03-16T23:04:51.008Z,113.68
2023-03-16T23:07:58.367Z,107.90
2023-03-16T23:11:04.445Z,103.41
2023-03-16T23:14:17.621Z,103.80
2023-03-16T23:17:26.082Z,105.15
2023-03-16T23:20:35.276Z,101.15
2023-03-16T23:23:44.372Z,96.32
2023-03-16T23:26:54.123Z,93.99
2023-03-16T23:30:00.044Z,99.60
2023-03-16T23:33:09.364Z,108.34
2023-03-16T23:36:18.559Z,99.00
2023-03-16T23:39:25.861Z,100.68
2023-03-16T23:42:31.793Z,105.86
2023-03-16T23:45:44.625Z,97.98
2023-03-16T23:48:58.341Z,95.04
2023-03-16T23:52:05.548Z,94.74
2023-03-16T23:55:16.365Z,96.60
2023-03-16T23:58:23.064Z,100.03
